Terminal Aerodrome Forecast
Issued by NWS Cleveland, OH

Home | Current Version | Previous Version | Graphics & Text | Print | Product List | Glossary On
Versions: 1 2 3 4 5 6 7 8 9 10 11 12
393
FTUS41 KCLE 241505 AAA
TAFTOL
TAF AMD
KTOL 241505Z 2415/2512 07012G20KT P6SM SKC
     FM250100 09008KT P6SM SCT050 BKN100=

USA.gov is the U.S. government's official web portal to all federal, state and local government web resources and services.